Terminal Aerodrome Forecast
Issued by NWS

Home | Current Version | Previous Version | Text Only | Print | Product List | Glossary On
Versions: 1 2 3 4 5 6 7 8 9 10 11 12 13 14 15 16 17 18 19 20 21
000
FTUS43 KILX 281748
TAFCMI
TAF
KCMI 281748Z 2818/2918 12012KT P6SM SCT035 BKN250
     FM290600 17008KT P6SM BKN250
     FM291500 19010KT P6SM BKN035=

USA.gov is the U.S. government's official web portal to all federal, state and local government web resources and services.